createdAt,value
2019-04-10T00:04:29.618Z,4.98
2019-04-10T00:12:47.688Z,4.79
2019-04-10T00:21:27.594Z,4.66
2019-04-10T00:26:34.458Z,4.63
2019-04-10T00:35:52.002Z,4.49
2019-04-10T00:40:59.654Z,4.48
2019-04-10T00:46:06.593Z,4.35
2019-04-10T00:51:13.463Z,4.35
2019-04-10T00:56:20.777Z,4.11
2019-04-10T01:01:27.710Z,4.11
2019-04-10T01:06:34.509Z,4.11
2019-04-10T01:11:41.478Z,4.02
2019-04-10T01:16:49.365Z,3.97
2019-04-10T01:21:56.985Z,3.92
2019-04-10T01:27:05.263Z,3.86
2019-04-10T01:32:12.489Z,3.80
2019-04-10T01:37:19.465Z,3.75
2019-04-10T01:42:26.455Z,3.68
2019-04-10T01:47:33.497Z,3.61
2019-04-10T01:52:41.455Z,3.56
2019-04-10T01:57:49.080Z,3.52
2019-04-10T02:02:56.113Z,3.48
2019-04-10T02:08:09.078Z,3.45
2019-04-10T02:13:12.270Z,3.42
2019-04-10T02:18:19.503Z,3.37
2019-04-10T02:23:26.607Z,3.38
2019-04-10T02:28:33.506Z,3.33
2019-04-10T02:33:41.237Z,3.30
2019-04-10T02:38:59.275Z,3.30
2019-04-10T02:43:58.036Z,3.22
2019-04-10T02:49:06.194Z,3.16
2019-04-10T02:54:14.086Z,3.00
2019-04-10T02:59:23.362Z,3.00
2019-04-10T03:04:31.118Z,3.01
2019-04-10T03:09:53.306Z,2.99
2019-04-10T03:14:47.740Z,2.97
2019-04-10T03:19:56.082Z,2.97
2019-04-10T03:25:04.414Z,2.97
2019-04-10T03:30:14.911Z,3.05
2019-04-10T03:35:30.352Z,3.05
2019-04-10T03:40:37.626Z,3.08
2019-04-10T03:45:44.546Z,3.29
2019-04-10T03:50:52.176Z,3.37
2019-04-10T03:55:59.474Z,3.37
2019-04-10T04:01:06.912Z,3.48
2019-04-10T04:06:14.096Z,3.57
2019-04-10T04:11:21.804Z,3.66
2019-04-10T04:16:28.729Z,3.73
2019-04-10T04:21:36.257Z,3.79
2019-04-10T04:26:45.066Z,3.83
2019-04-10T04:31:52.707Z,3.88
2019-04-10T04:37:00.625Z,3.94
2019-04-10T04:42:07.583Z,4.13
2019-04-10T04:47:15.654Z,4.25
2019-04-10T04:52:23.782Z,4.25
2019-04-10T04:57:33.727Z,4.41
2019-04-10T05:02:42.616Z,4.56
2019-04-10T05:07:59.349Z,4.68
2019-04-10T05:12:57.823Z,4.76
2019-04-10T05:18:06.238Z,4.86
2019-04-10T05:23:12.357Z,4.95
2019-04-10T05:28:20.400Z,5.05
2019-04-10T05:33:27.435Z,5.22
2019-04-10T05:38:35.536Z,5.22
2019-04-10T05:43:42.644Z,5.31
2019-04-10T05:48:50.489Z,5.40
2019-04-10T05:53:58.021Z,5.40
2019-04-10T05:59:08.010Z,5.38
2019-04-10T06:04:14.430Z,5.39
2019-04-10T06:09:22.659Z,5.38
2019-04-10T06:14:30.402Z,5.46
2019-04-10T06:19:38.501Z,5.72
2019-04-10T06:24:46.906Z,5.72
2019-04-10T06:29:53.623Z,5.90
2019-04-10T06:35:01.780Z,6.29
2019-04-10T06:40:18.149Z,6.29
2019-04-10T06:45:19.738Z,6.48
2019-04-10T06:50:28.639Z,6.65
2019-04-10T06:55:38.446Z,6.79
2019-04-10T07:00:51.047Z,6.98
2019-04-10T07:06:06.071Z,6.98
2019-04-10T07:11:08.689Z,7.20
2019-04-10T07:16:12.765Z,7.44
2019-04-10T07:21:20.125Z,7.67
2019-04-10T07:26:35.441Z,7.87
2019-04-10T07:31:37.921Z,8.12
2019-04-10T07:36:46.931Z,8.36
2019-04-10T07:41:55.749Z,8.62
2019-04-10T07:47:02.764Z,8.81
2019-04-10T07:52:10.606Z,9.02
2019-04-10T07:57:17.559Z,9.62
2019-04-10T08:02:25.489Z,9.93
2019-04-10T08:07:35.734Z,9.93
2019-04-10T08:12:47.349Z,10.09
2019-04-10T08:17:50.874Z,10.27
2019-04-10T08:22:57.902Z,10.43
2019-04-10T08:28:04.669Z,10.65
2019-04-10T08:33:11.994Z,10.55
2019-04-10T08:38:19.643Z,10.55
2019-04-10T08:43:26.685Z,10.49
2019-04-10T08:48:34.549Z,10.49
2019-04-10T08:53:42.480Z,10.61
2019-04-10T08:58:51.802Z,10.67
2019-04-10T09:03:59.422Z,10.67
2019-04-10T09:09:09.733Z,10.96
2019-04-10T09:14:17.079Z,11.31
2019-04-10T09:19:25.606Z,11.90
2019-04-10T09:24:32.500Z,12.40
2019-04-10T09:29:40.361Z,12.40
2019-04-10T09:34:49.895Z,13.56
2019-04-10T09:39:58.021Z,14.32
2019-04-10T09:45:05.596Z,14.07
2019-04-10T09:50:13.091Z,13.80
2019-04-10T09:55:20.542Z,13.80
2019-04-10T10:00:27.882Z,14.04
2019-04-10T10:05:35.485Z,14.20
2019-04-10T10:10:42.589Z,14.64
2019-04-10T10:15:49.534Z,15.16
2019-04-10T10:20:56.547Z,15.20
2019-04-10T10:26:03.851Z,15.73
2019-04-10T10:31:11.563Z,15.73
2019-04-10T10:36:18.450Z,16.11
2019-04-10T10:41:26.416Z,16.11
2019-04-10T10:46:33.548Z,14.94
2019-04-10T10:51:40.597Z,13.75
2019-04-10T10:56:48.584Z,13.08
2019-04-10T11:01:55.983Z,13.08
2019-04-10T11:07:04.613Z,12.86
2019-04-10T11:12:12.193Z,12.85
2019-04-10T11:17:19.936Z,13.30
2019-04-10T11:22:27.429Z,13.23
2019-04-10T11:27:35.572Z,13.86
2019-04-10T11:32:42.593Z,15.23
2019-04-10T11:37:53.232Z,14.62
2019-04-10T11:43:04.709Z,14.62
2019-04-10T11:48:10.331Z,14.01
2019-04-10T11:53:19.091Z,14.40
2019-04-10T11:58:28.901Z,15.20
2019-04-10T12:03:37.118Z,16.45
2019-04-10T12:09:08.465Z,17.39
2019-04-10T12:13:54.378Z,17.49
2019-04-10T12:19:02.676Z,16.15
2019-04-10T12:24:09.609Z,16.24
2019-04-10T12:29:16.575Z,14.09
2019-04-10T12:34:24.580Z,14.09
2019-04-10T12:39:32.204Z,14.68
2019-04-10T12:44:42.726Z,14.68
2019-04-10T12:49:50.585Z,16.23
2019-04-10T12:54:57.479Z,17.42
2019-04-10T13:00:05.264Z,17.42
2019-04-10T13:05:13.309Z,18.03
2019-04-10T13:10:20.478Z,17.26
2019-04-10T13:15:27.629Z,16.19
2019-04-10T13:20:34.688Z,16.14
2019-04-10T13:25:42.729Z,17.26
2019-04-10T13:30:53.787Z,17.26
2019-04-10T13:35:59.562Z,15.58
2019-04-10T13:41:06.589Z,15.66
2019-04-10T13:46:14.260Z,16.97
2019-04-10T13:51:21.460Z,16.97
2019-04-10T13:56:28.805Z,17.32
2019-04-10T14:01:38.437Z,16.52
2019-04-10T14:06:49.269Z,14.88
2019-04-10T14:11:57.582Z,15.73
2019-04-10T14:17:06.855Z,15.73
2019-04-10T14:22:14.246Z,16.94
2019-04-10T14:27:26.610Z,17.32
2019-04-10T14:32:38.167Z,15.86
2019-04-10T14:37:45.475Z,15.07
2019-04-10T14:42:53.560Z,13.55
2019-04-10T14:48:03.680Z,12.81
2019-04-10T14:53:11.742Z,12.60
2019-04-10T14:58:27.528Z,12.60
2019-04-10T15:03:30.459Z,12.45
2019-04-10T15:08:48.801Z,12.43
2019-04-10T15:13:57.218Z,12.50
2019-04-10T15:19:04.574Z,12.50
2019-04-10T15:24:12.602Z,14.22
2019-04-10T15:29:21.322Z,14.79
2019-04-10T15:34:28.593Z,14.79
2019-04-10T15:39:39.958Z,15.10
2019-04-10T15:44:46.491Z,15.10
2019-04-10T15:49:53.632Z,15.16
2019-04-10T15:55:01.558Z,14.94
2019-04-10T16:00:12.676Z,14.94
2019-04-10T16:05:20.066Z,12.99
2019-04-10T16:10:46.285Z,12.99
2019-04-10T16:15:54.718Z,12.95
2019-04-10T16:21:02.084Z,13.02
2019-04-10T16:26:09.650Z,12.87
2019-04-10T16:31:16.471Z,12.34
2019-04-10T16:36:23.566Z,12.28
2019-04-10T16:41:31.189Z,12.19
2019-04-10T16:46:38.595Z,12.19
2019-04-10T16:51:45.567Z,11.92
2019-04-10T16:56:52.591Z,11.65
2019-04-10T17:02:00.434Z,11.36
2019-04-10T17:07:08.661Z,11.36
2019-04-10T17:12:15.671Z,10.78
2019-04-10T17:17:23.463Z,10.39
2019-04-10T17:22:37.119Z,10.39
2019-04-10T17:27:39.414Z,10.14
2019-04-10T17:32:46.660Z,9.94
2019-04-10T17:37:54.254Z,9.71
2019-04-10T17:43:00.998Z,9.57
2019-04-10T17:48:09.516Z,9.48
2019-04-10T17:53:17.288Z,9.45
2019-04-10T17:58:25.921Z,9.32
2019-04-10T18:03:42.973Z,9.21
2019-04-10T18:08:41.596Z,9.15
2019-04-10T18:13:49.242Z,8.97
2019-04-10T18:18:56.792Z,8.97
2019-04-10T18:24:04.147Z,8.90
2019-04-10T18:29:11.670Z,8.82
2019-04-10T18:34:19.381Z,8.61
2019-04-10T18:42:28.797Z,8.49
2019-04-10T18:47:39.145Z,8.49
2019-04-10T18:52:45.690Z,8.42
2019-04-10T18:57:52.601Z,8.34
2019-04-10T19:03:11.034Z,8.29
2019-04-10T19:08:19.684Z,8.28
2019-04-10T19:13:26.693Z,8.24
2019-04-10T19:18:33.596Z,8.14
2019-04-10T19:23:41.747Z,8.07
2019-04-10T19:28:48.846Z,8.07
2019-04-10T19:33:56.774Z,8.00
2019-04-10T19:39:05.536Z,7.95
2019-04-10T19:44:12.952Z,7.87
2019-04-10T19:49:20.064Z,7.81
2019-04-10T19:54:28.205Z,7.73
2019-04-10T19:59:37.249Z,7.71
2019-04-10T20:04:45.050Z,7.68
2019-04-10T20:09:52.818Z,7.55
2019-04-10T20:15:00.501Z,7.41
2019-04-10T20:20:08.443Z,7.41
2019-04-10T20:25:16.471Z,7.27
2019-04-10T20:30:26.268Z,7.14
2019-04-10T20:36:11.033Z,7.11
2019-04-10T20:41:18.399Z,7.09
2019-04-10T20:46:26.321Z,7.02
2019-04-10T20:51:33.256Z,6.97
2019-04-10T20:56:41.062Z,6.90
2019-04-10T21:01:49.095Z,6.80
2019-04-10T21:06:56.639Z,6.67
2019-04-10T21:12:08.580Z,6.58
2019-04-10T21:17:12.491Z,6.46
2019-04-10T21:22:20.355Z,6.35
2019-04-10T21:27:28.005Z,6.27
2019-04-10T21:33:02.273Z,6.21
2019-04-10T21:38:09.453Z,6.15
2019-04-10T21:43:18.538Z,6.16
2019-04-10T21:48:26.602Z,6.18
2019-04-10T21:53:34.453Z,6.21
2019-04-10T21:58:42.576Z,6.21
2019-04-10T22:03:50.520Z,6.30
2019-04-10T22:09:15.345Z,6.30
2019-04-10T22:14:24.268Z,6.36
2019-04-10T22:19:31.543Z,6.36
2019-04-10T22:24:38.633Z,6.31
2019-04-10T22:29:45.532Z,6.32
2019-04-10T22:34:52.836Z,6.24
2019-04-10T22:40:01.103Z,6.24
2019-04-10T22:45:15.559Z,6.20
2019-04-10T22:50:22.583Z,6.16
2019-04-10T22:55:29.583Z,6.15
2019-04-10T23:00:37.602Z,6.10
2019-04-10T23:05:44.797Z,6.10
2019-04-10T23:10:51.640Z,6.00
2019-04-10T23:15:59.673Z,5.80
2019-04-10T23:21:08.141Z,5.80
2019-04-10T23:26:15.931Z,5.76
2019-04-10T23:31:23.721Z,5.70
2019-04-10T23:36:31.729Z,5.67
2019-04-10T23:41:39.785Z,5.66
2019-04-10T23:46:47.452Z,5.65
2019-04-10T23:51:55.662Z,5.65
2019-04-10T23:57:03.134Z,5.52
